Attica, Ohio
Current Conditions -  °F | °C
As of 9:19 AM on Tuesday 27 Jan 2015 (Local Time) from KMFD Reporting Station
Light Snow Light Snow  
Wind Chill:   Ceiling: 1100
Heat Index: 13°   Visibility: 2mi
Dew Point: 11°   Wind: 9mph
Humidity: 92%   Direction: 320°NW
Pressure: 29.99"   Gusts: NA
Location:  41.06°N, 82.89°W
Report Text: KMFD 271419Z 32008KT 2SM -SN BR OVC011 M11/M12 A2999 RMK AO2 P0000 T11061117
Loading
Personal Weather Stations






























Interactive Weather Map New forecast layout! Learn more

10-Day Weather Forecast

Advertisements
Track Severe Weather on mobile